Time;durP1;ratioP1;P1;durP2;ratioP2;P2;SDS_P1;SDS_P2;PMS_P1;PMS_P2;Temp;Humidity;BMP_temperature;BMP_pressure;BME280_temperature;BME280_humidity;BME280_pressure;Samples;Min_cycle;Max_cycle;Signal;HPM_P1;HPM_P2
2023/04/28 00:00:51;;;;;;;2.08;1.88;;;14.20;99.90;;;;;;4941716;29;20035;-78
2023/04/28 00:03:17;;;;;;;4.20;1.70;;;14.20;99.90;;;;;;4957706;29;20456;-79
2023/04/28 00:05:42;;;;;;;3.05;2.17;;;14.20;99.90;;;;;;4941023;29;20124;-79
2023/04/28 00:08:08;;;;;;;3.42;1.90;;;14.30;99.90;;;;;;4941330;29;20028;-79
2023/04/28 00:10:34;;;;;;;4.28;2.85;;;14.20;99.90;;;;;;4940864;29;20023;-79
2023/04/28 00:13:00;;;;;;;4.45;2.00;;;14.30;99.90;;;;;;4941395;29;20039;-78
2023/04/28 00:15:26;;;;;;;4.28;1.80;;;14.30;99.90;;;;;;4941553;29;20048;-79
2023/04/28 00:17:52;;;;;;;3.60;2.28;;;14.30;99.90;;;;;;4941031;29;20416;-79
2023/04/28 00:20:17;;;;;;;3.15;2.05;;;14.30;99.90;;;;;;4941602;29;20063;-79
2023/04/28 00:22:43;;;;;;;5.13;2.22;;;14.20;99.90;;;;;;4956767;28;20424;-79
2023/04/28 00:25:09;;;;;;;3.65;2.20;;;14.30;99.90;;;;;;4941473;29;20027;-78
2023/04/28 00:27:35;;;;;;;5.50;2.25;;;14.20;99.90;;;;;;4940971;29;20494;-78
2023/04/28 00:30:01;;;;;;;5.68;2.30;;;14.10;99.90;;;;;;4958441;29;20043;-79
2023/04/28 00:32:27;;;;;;;4.57;2.03;;;14.20;99.90;;;;;;4941443;29;20159;-78
2023/04/28 00:34:52;;;;;;;3.17;2.17;;;14.20;99.90;;;;;;4940916;29;20035;-78
2023/04/28 00:37:19;;;;;;;4.25;2.03;;;14.10;99.90;;;;;;4941181;29;20063;-79
2023/04/28 00:39:45;;;;;;;4.68;2.08;;;14.20;99.90;;;;;;4940839;29;20050;-79
2023/04/28 00:42:12;;;;;;;3.85;1.95;;;14.20;99.90;;;;;;4941492;29;20045;-80
2023/04/28 00:44:38;;;;;;;3.83;2.03;;;14.20;99.90;;;;;;4940853;29;20460;-78
2023/04/28 00:47:04;;;;;;;2.67;1.80;;;14.20;99.90;;;;;;4941448;29;20028;-78
2023/04/28 00:49:30;;;;;;;4.70;2.38;;;14.10;99.90;;;;;;4941056;29;20031;-80
2023/04/28 00:51:56;;;;;;;4.13;2.72;;;14.10;99.90;;;;;;4940705;28;20059;-79
2023/04/28 00:54:22;;;;;;;8.57;3.22;;;14.10;99.90;;;;;;4957890;29;20033;-79
2023/04/28 00:56:48;;;;;;;4.10;2.25;;;14.00;99.90;;;;;;4940412;29;20113;-79
2023/04/28 00:59:13;;;;;;;6.07;2.70;;;14.00;99.90;;;;;;4958032;29;20523;-78
2023/04/28 01:01:39;;;;;;;5.22;2.55;;;14.00;99.90;;;;;;4940319;29;20027;-80
2023/04/28 01:04:05;;;;;;;4.32;2.42;;;14.00;99.90;;;;;;4957973;29;20035;-79
2023/04/28 01:06:31;;;;;;;3.60;2.17;;;13.90;99.90;;;;;;4958167;29;20027;-79
2023/04/28 01:08:57;;;;;;;3.85;2.80;;;13.80;99.90;;;;;;4940041;28;20086;-78
2023/04/28 01:11:23;;;;;;;3.13;2.55;;;13.80;99.90;;;;;;4956925;29;20400;-79
2023/04/28 01:13:48;;;;;;;4.47;2.45;;;13.80;99.90;;;;;;4939966;29;20122;-79
2023/04/28 01:16:14;;;;;;;6.22;2.47;;;13.80;99.90;;;;;;4940570;29;20464;-79
2023/04/28 01:18:45;;;;;;;6.22;2.55;;;13.80;99.90;;;;;;4940281;29;20027;-79
2023/04/28 01:21:11;;;;;;;4.95;2.53;;;13.80;99.90;;;;;;4940594;29;20031;-79
2023/04/28 01:23:37;;;;;;;5.65;2.45;;;13.80;99.90;;;;;;4956815;29;20125;-81
2023/04/28 01:26:03;;;;;;;3.65;2.53;;;13.80;99.90;;;;;;4957780;29;20472;-79
2023/04/28 01:28:28;;;;;;;3.55;2.30;;;13.80;99.90;;;;;;4958065;29;20031;-79
2023/04/28 01:30:55;;;;;;;3.53;2.63;;;13.80;99.90;;;;;;4939787;29;20641;-79
2023/04/28 01:33:21;;;;;;;8.23;3.00;;;13.80;99.90;;;;;;4969079;28;20435;-79
2023/04/28 01:35:46;;;;;;;5.88;2.60;;;13.80;99.90;;;;;;4976390;28;20030;-79
2023/04/28 01:38:12;;;;;;;6.03;2.60;;;13.70;99.90;;;;;;4976825;28;20531;-78
2023/04/28 01:40:37;;;;;;;5.95;2.92;;;13.70;99.90;;;;;;4959023;28;20090;-80
2023/04/28 01:43:03;;;;;;;4.55;2.58;;;13.70;99.90;;;;;;4976628;28;20030;-78
2023/04/28 01:45:29;;;;;;;6.22;2.70;;;13.70;99.90;;;;;;4959384;28;20126;-78
2023/04/28 01:47:54;;;;;;;5.75;2.70;;;13.60;99.90;;;;;;4976534;28;20495;-78
2023/04/28 01:50:20;;;;;;;5.13;2.80;;;13.60;99.90;;;;;;4959346;28;20034;-77
2023/04/28 01:52:46;;;;;;;4.78;2.67;;;13.70;99.90;;;;;;4959025;28;20042;-79
2023/04/28 01:55:11;;;;;;;4.35;2.40;;;13.70;99.90;;;;;;4959091;28;20487;-78
2023/04/28 01:57:37;;;;;;;4.15;2.85;;;13.60;99.90;;;;;;4975892;28;20034;-81
2023/04/28 02:00:03;;;;;;;4.60;2.60;;;13.60;99.90;;;;;;4958843;28;20037;-78
2023/04/28 02:02:29;;;;;;;5.72;2.75;;;13.60;99.90;;;;;;4958862;28;20388;-78
2023/04/28 02:04:56;;;;;;;3.20;2.20;;;13.60;99.90;;;;;;4958638;28;20034;-79
2023/04/28 02:07:22;;;;;;;4.95;2.97;;;13.50;99.90;;;;;;4958663;28;20027;-78
2023/04/28 02:09:48;;;;;;;4.72;2.30;;;13.50;99.90;;;;;;4958343;28;20027;-79
2023/04/28 02:12:13;;;;;;;4.18;2.88;;;13.50;99.90;;;;;;4959420;28;20035;-79
2023/04/28 02:14:39;;;;;;;4.13;3.08;;;13.50;99.90;;;;;;4958517;28;20054;-80
2023/04/28 02:17:05;;;;;;;7.20;3.30;;;13.40;99.90;;;;;;4959299;28;20065;-78
2023/04/28 02:19:30;;;;;;;6.05;3.17;;;13.40;99.90;;;;;;4958881;28;20105;-79
2023/04/28 02:21:56;;;;;;;6.93;3.20;;;13.50;99.90;;;;;;4974605;28;20058;-79
2023/04/28 02:24:21;;;;;;;7.55;3.20;;;13.50;99.90;;;;;;4976007;28;20058;-79
2023/04/28 02:26:47;;;;;;;7.57;3.78;;;13.40;99.90;;;;;;4957934;28;20069;-77
2023/04/28 02:29:13;;;;;;;6.32;3.05;;;13.40;99.90;;;;;;4958013;28;20018;-79
2023/04/28 02:31:39;;;;;;;4.70;3.17;;;13.40;99.90;;;;;;4958063;28;20073;-81
2023/04/28 02:34:05;;;;;;;6.82;3.13;;;13.40;99.90;;;;;;4975373;28;20121;-78
2023/04/28 02:36:32;;;;;;;4.60;2.88;;;13.40;99.90;;;;;;4958182;28;20066;-79
2023/04/28 02:38:57;;;;;;;4.90;3.10;;;13.40;99.90;;;;;;4957700;28;20558;-78
2023/04/28 02:41:23;;;;;;;9.63;3.55;;;13.30;99.90;;;;;;4958229;28;20058;-78
2023/04/28 02:43:49;;;;;;;8.38;3.53;;;13.40;99.90;;;;;;4957469;28;20340;-78
2023/04/28 02:46:14;;;;;;;8.55;3.45;;;13.40;99.90;;;;;;4957902;28;20039;-78
2023/04/28 02:48:40;;;;;;;6.05;3.63;;;13.30;99.90;;;;;;4957329;28;20022;-82
2023/04/28 02:51:06;;;;;;;7.03;3.38;;;13.40;99.90;;;;;;4958498;28;20030;-80
2023/04/28 02:53:31;;;;;;;7.43;3.70;;;13.40;99.90;;;;;;4958118;28;20035;-79
2023/04/28 02:55:58;;;;;;;5.28;3.20;;;13.40;99.90;;;;;;4958000;28;20561;-79
2023/04/28 02:58:23;;;;;;;6.85;3.60;;;13.40;99.90;;;;;;4958480;28;20022;-80
2023/04/28 03:00:49;;;;;;;6.00;3.70;;;13.40;99.90;;;;;;4957822;28;20476;-80
2023/04/28 03:03:15;;;;;;;8.60;3.58;;;13.40;99.90;;;;;;4958748;28;20534;-79
2023/04/28 03:05:40;;;;;;;5.82;3.60;;;13.50;99.90;;;;;;4975090;28;20456;-79
2023/04/28 03:08:06;;;;;;;6.25;4.18;;;13.50;99.90;;;;;;4958100;28;20030;-80
2023/04/28 03:10:32;;;;;;;6.18;4.07;;;13.40;99.90;;;;;;4958295;28;20031;-79
2023/04/28 03:12:57;;;;;;;9.60;3.83;;;13.40;99.90;;;;;;4974914;28;20452;-79
2023/04/28 03:15:23;;;;;;;11.38;4.10;;;13.30;99.90;;;;;;4957644;28;20031;-79
2023/04/28 03:17:48;;;;;;;6.13;3.92;;;13.30;99.90;;;;;;4957283;28;20093;-80
2023/04/28 03:20:14;;;;;;;7.15;4.05;;;13.30;99.90;;;;;;4975253;28;20073;-79
2023/04/28 03:22:40;;;;;;;6.25;3.90;;;13.30;99.90;;;;;;4957390;28;20050;-81
2023/04/28 03:25:06;;;;;;;7.47;4.18;;;13.20;99.90;;;;;;4957769;28;20030;-79
2023/04/28 03:27:32;;;;;;;6.97;3.70;;;13.20;99.90;;;;;;4974973;28;20030;-79
2023/04/28 03:29:57;;;;;;;9.25;3.90;;;13.30;99.90;;;;;;4974307;28;20047;-79
2023/04/28 03:32:23;;;;;;;6.15;3.70;;;13.20;99.90;;;;;;4957732;28;20043;-79
2023/04/28 03:34:48;;;;;;;6.22;4.00;;;13.30;99.90;;;;;;4961135;28;20035;-80
2023/04/28 03:37:14;;;;;;;6.43;4.50;;;13.30;99.90;;;;;;4961399;28;20027;-79
2023/04/28 03:39:39;;;;;;;6.75;3.72;;;13.30;99.90;;;;;;4961929;28;20038;-79
2023/04/28 03:42:05;;;;;;;5.88;3.75;;;13.30;99.90;;;;;;4978386;28;20035;-79
2023/04/28 03:44:31;;;;;;;6.20;4.07;;;13.30;99.90;;;;;;4978783;28;20027;-79
2023/04/28 03:46:56;;;;;;;9.32;3.75;;;13.20;99.90;;;;;;4978392;28;20023;-79
2023/04/28 03:49:22;;;;;;;8.55;4.32;;;13.20;99.90;;;;;;4978661;28;20031;-80
2023/04/28 03:51:48;;;;;;;7.22;3.83;;;13.30;99.90;;;;;;4960785;28;20452;-79
2023/04/28 03:54:14;;;;;;;6.15;3.95;;;13.30;99.90;;;;;;4961565;28;20090;-79
2023/04/28 03:56:40;;;;;;;6.65;4.00;;;13.20;99.90;;;;;;4961677;28;20027;-79
2023/04/28 03:59:06;;;;;;;9.45;4.00;;;13.30;99.90;;;;;;4960968;28;20031;-79
2023/04/28 04:01:31;;;;;;;6.47;4.00;;;13.30;99.90;;;;;;4961557;28;20030;-79
2023/04/28 04:03:57;;;;;;;8.40;4.00;;;13.30;99.90;;;;;;4978160;28;20035;-79
2023/04/28 04:06:23;;;;;;;5.32;3.65;;;13.30;99.90;;;;;;4978169;28;20027;-79
2023/04/28 04:08:48;;;;;;;9.23;3.72;;;13.30;99.90;;;;;;4961057;28;20078;-80
2023/04/28 04:11:14;;;;;;;5.85;3.92;;;13.20;99.90;;;;;;4961015;28;20027;-78
2023/04/28 04:13:39;;;;;;;5.32;3.38;;;13.20;99.90;;;;;;4961111;28;20027;-78
2023/04/28 04:16:06;;;;;;;7.70;3.70;;;13.20;99.90;;;;;;4978044;28;20090;-79
2023/04/28 04:18:31;;;;;;;8.95;3.90;;;13.20;99.90;;;;;;4978128;28;20027;-80
2023/04/28 04:20:57;;;;;;;5.90;3.70;;;13.20;99.90;;;;;;4977616;28;20539;-79
2023/04/28 04:23:22;;;;;;;4.63;3.53;;;13.20;99.90;;;;;;4978166;28;20062;-80
2023/04/28 04:25:48;;;;;;;4.80;3.63;;;13.20;99.90;;;;;;4959936;28;20035;-78
2023/04/28 04:28:14;;;;;;;7.10;3.95;;;13.20;99.90;;;;;;4960794;28;20464;-78
2023/04/28 04:30:40;;;;;;;5.07;3.58;;;13.20;99.90;;;;;;4960529;28;20051;-78
2023/04/28 04:33:06;;;;;;;7.18;3.72;;;13.20;99.90;;;;;;4959734;28;20027;-79
2023/04/28 04:35:32;;;;;;;7.25;3.90;;;13.10;99.90;;;;;;4960529;28;20038;-79
2023/04/28 04:37:57;;;;;;;5.38;3.70;;;13.20;99.90;;;;;;4960145;28;20108;-79
2023/04/28 04:40:23;;;;;;;4.75;3.45;;;13.20;99.90;;;;;;4978053;28;20031;-80
2023/04/28 04:42:48;;;;;;;7.13;3.42;;;13.20;99.90;;;;;;4960169;28;20118;-81
2023/04/28 04:45:14;;;;;;;8.93;4.18;;;13.30;99.90;;;;;;4960336;28;20022;-79
2023/04/28 04:47:40;;;;;;;5.55;3.30;;;13.30;99.90;;;;;;4960698;28;20036;-79
2023/04/28 04:50:06;;;;;;;5.85;3.47;;;13.30;99.90;;;;;;4959940;28;20060;-80
2023/04/28 04:52:32;;;;;;;6.05;3.58;;;13.30;99.90;;;;;;4960039;28;20039;-80
2023/04/28 04:54:58;;;;;;;8.07;3.67;;;13.40;99.90;;;;;;4960214;28;20038;-80
2023/04/28 04:57:23;;;;;;;4.45;3.28;;;13.40;99.90;;;;;;4960446;28;20031;-76
2023/04/28 04:59:49;;;;;;;6.70;3.65;;;13.40;99.90;;;;;;4959362;28;20026;-79
2023/04/28 05:02:15;;;;;;;5.88;3.45;;;13.40;99.90;;;;;;4959977;28;20081;-78
2023/04/28 05:04:40;;;;;;;5.50;3.42;;;13.40;99.90;;;;;;4959863;28;20447;-77
2023/04/28 05:07:06;;;;;;;4.45;3.30;;;13.40;99.90;;;;;;4976240;28;20026;-78
2023/04/28 05:09:32;;;;;;;5.95;3.00;;;13.50;99.90;;;;;;4976631;28;20026;-78
2023/04/28 05:11:58;;;;;;;7.05;3.10;;;13.50;99.90;;;;;;4958899;28;20027;-78
2023/04/28 05:14:24;;;;;;;5.82;3.53;;;13.50;99.90;;;;;;4959979;28;20177;-78
2023/04/28 05:16:50;;;;;;;5.80;3.55;;;13.50;99.90;;;;;;4976502;28;20019;-79
2023/04/28 05:19:15;;;;;;;5.47;3.15;;;13.50;99.90;;;;;;4959790;28;20026;-78
2023/04/28 05:21:41;;;;;;;8.23;3.90;;;13.50;99.90;;;;;;4960026;28;20029;-79
2023/04/28 05:24:07;;;;;;;4.45;3.30;;;13.50;99.90;;;;;;4959404;28;20121;-79
2023/04/28 05:26:32;;;;;;;9.40;3.80;;;13.50;99.90;;;;;;4977288;28;20535;-78
2023/04/28 05:28:58;;;;;;;8.95;3.85;;;13.50;99.90;;;;;;4959510;28;20506;-78
2023/04/28 05:31:24;;;;;;;5.63;3.78;;;13.60;99.90;;;;;;4959510;28;20051;-78
2023/04/28 05:33:49;;;;;;;9.43;3.97;;;13.60;99.90;;;;;;4976434;28;20464;-80
2023/04/28 05:36:15;;;;;;;6.82;3.90;;;13.60;99.90;;;;;;4959643;28;20471;-79
2023/04/28 05:38:42;;;;;;;8.55;3.70;;;13.60;99.90;;;;;;4959523;28;20031;-79
2023/04/28 05:41:08;;;;;;;8.35;3.25;;;13.60;99.90;;;;;;4976701;28;20031;-78
2023/04/28 05:43:33;;;;;;;5.65;3.50;;;13.60;99.90;;;;;;4976283;28;20038;-77
2023/04/28 05:46:00;;;;;;;6.82;3.38;;;13.70;99.90;;;;;;4959193;28;20030;-78
2023/04/28 05:48:25;;;;;;;7.28;3.40;;;13.60;99.90;;;;;;4976536;28;20105;-79
2023/04/28 05:50:51;;;;;;;4.70;3.00;;;13.70;99.90;;;;;;4976191;28;20069;-80
2023/04/28 05:53:16;;;;;;;6.90;3.60;;;13.70;99.90;;;;;;4958951;28;20046;-78
2023/04/28 05:55:42;;;;;;;5.57;3.60;;;13.80;99.90;;;;;;4975806;28;20030;-78
2023/04/28 05:58:08;;;;;;;6.32;4.15;;;13.70;99.90;;;;;;4975461;28;20023;-77
2023/04/28 06:00:34;;;;;;;5.90;3.40;;;13.70;99.90;;;;;;4976118;28;20030;-78
2023/04/28 06:03:00;;;;;;;4.35;3.20;;;13.70;99.90;;;;;;4975347;28;20174;-78
2023/04/28 06:05:26;;;;;;;5.25;3.47;;;13.70;99.90;;;;;;4961653;28;20038;-77
2023/04/28 06:07:52;;;;;;;8.85;3.20;;;13.70;99.90;;;;;;4977563;28;20027;-81
2023/04/28 06:10:19;;;;;;;6.50;3.15;;;13.70;99.90;;;;;;4975708;28;20061;-78
2023/04/28 06:12:44;;;;;;;9.68;3.25;;;13.80;99.90;;;;;;4975973;28;20027;-79
2023/04/28 06:15:10;;;;;;;5.32;3.08;;;13.70;99.90;;;;;;4975736;28;20102;-77
2023/04/28 06:17:37;;;;;;;5.85;3.00;;;13.80;99.90;;;;;;4959127;28;20030;-78
2023/04/28 06:20:04;;;;;;;5.47;3.30;;;13.80;99.90;;;;;;4958642;28;20051;-81
2023/04/28 06:22:29;;;;;;;5.18;3.08;;;13.70;99.90;;;;;;4959160;28;20043;-82
2023/04/28 06:24:55;;;;;;;4.55;3.05;;;13.70;99.90;;;;;;4956032;28;20030;-82
2023/04/28 06:27:21;;;;;;;4.95;3.20;;;13.80;99.90;;;;;;4958281;28;20053;-81
2023/04/28 06:29:46;;;;;;;4.40;2.85;;;13.80;99.90;;;;;;4975152;28;20047;-81
2023/04/28 06:32:12;;;;;;;8.57;2.80;;;13.80;99.90;;;;;;4975101;28;20031;-82
2023/04/28 06:34:37;;;;;;;8.45;3.00;;;13.80;99.90;;;;;;4975615;28;20030;-80
2023/04/28 06:37:03;;;;;;;4.40;2.92;;;13.80;99.90;;;;;;4958161;28;20074;-80
2023/04/28 06:39:29;;;;;;;4.35;2.92;;;13.80;99.90;;;;;;4957011;28;20459;-81
2023/04/28 06:41:54;;;;;;;3.13;2.38;;;13.80;99.90;;;;;;4958661;28;20029;-82
2023/04/28 06:44:20;;;;;;;3.55;2.30;;;13.80;99.90;;;;;;4958866;28;20547;-77
2023/04/28 06:46:46;;;;;;;3.80;2.53;;;13.80;99.90;;;;;;4968416;28;20376;-77
2023/04/28 06:49:11;;;;;;;5.00;2.60;;;13.80;99.90;;;;;;4953386;28;20053;-77
2023/04/28 06:51:37;;;;;;;5.00;2.50;;;13.80;99.90;;;;;;4956862;28;20538;-79
2023/04/28 06:54:02;;;;;;;5.28;2.65;;;13.70;99.90;;;;;;4957473;28;20039;-78
2023/04/28 06:56:28;;;;;;;7.78;2.65;;;13.80;99.90;;;;;;4963246;28;20037;-78
2023/04/28 06:58:56;;;;;;;5.22;2.95;;;13.80;99.90;;;;;;4994208;28;20081;-81
2023/04/28 07:01:21;;;;;;;4.13;2.70;;;13.80;99.90;;;;;;4950967;28;20023;-81
2023/04/28 07:03:47;;;;;;;4.35;2.80;;;13.80;99.90;;;;;;4956449;28;20118;-77
2023/04/28 07:06:13;;;;;;;5.18;2.72;;;13.80;99.90;;;;;;4956300;28;20043;-76
2023/04/28 07:08:38;;;;;;;6.05;2.72;;;13.90;99.90;;;;;;4974050;28;20121;-77
2023/04/28 07:11:05;;;;;;;4.18;2.47;;;13.80;99.90;;;;;;4956742;28;20041;-78
2023/04/28 07:13:31;;;;;;;5.45;2.80;;;13.90;99.90;;;;;;4974389;28;20030;-78
2023/04/28 07:15:57;;;;;;;4.80;2.58;;;13.90;99.90;;;;;;4956255;28;20391;-76
2023/04/28 07:18:23;;;;;;;4.47;2.85;;;13.90;99.90;;;;;;4974087;28;20026;-77
2023/04/28 07:20:48;;;;;;;4.35;2.80;;;13.80;99.90;;;;;;4973892;28;20038;-78
2023/04/28 07:23:14;;;;;;;7.47;3.25;;;13.80;99.90;;;;;;4952199;28;20073;-79
2023/04/28 07:25:40;;;;;;;3.92;2.83;;;13.70;99.90;;;;;;4957265;28;20472;-78
2023/04/28 07:28:06;;;;;;;4.90;2.95;;;13.70;99.90;;;;;;4956979;28;20034;-78
2023/04/28 07:30:32;;;;;;;5.15;3.33;;;13.70;99.90;;;;;;4972721;28;20570;-77
2023/04/28 07:32:57;;;;;;;5.22;3.40;;;13.80;99.90;;;;;;4957152;28;20117;-77
2023/04/28 07:35:24;;;;;;;5.00;3.08;;;13.70;99.90;;;;;;4956045;28;20042;-78
2023/04/28 07:37:49;;;;;;;5.15;3.20;;;13.70;99.90;;;;;;4953231;29;20053;-78
2023/04/28 07:40:15;;;;;;;7.75;3.50;;;13.70;99.90;;;;;;4955985;28;20467;-78
2023/04/28 07:42:41;;;;;;;7.35;2.97;;;13.80;99.90;;;;;;4957191;28;20101;-77
2023/04/28 07:45:07;;;;;;;5.55;2.95;;;13.80;99.90;;;;;;4956594;28;20110;-77
2023/04/28 07:47:33;;;;;;;4.90;2.63;;;13.90;99.90;;;;;;4942700;29;20031;-79
2023/04/28 07:50:03;;;;;;;3.45;2.50;;;13.90;99.90;;;;;;4937572;29;20555;-78
2023/04/28 07:52:29;;;;;;;4.60;2.50;;;13.90;99.90;;;;;;4971010;28;20045;-81
2023/04/28 07:54:55;;;;;;;4.55;2.47;;;13.90;99.90;;;;;;4972770;28;20031;-80
2023/04/28 07:57:20;;;;;;;4.00;2.58;;;13.90;99.90;;;;;;4943513;28;20078;-77
2023/04/28 07:59:46;;;;;;;4.80;2.53;;;13.90;99.90;;;;;;4954596;28;20888;-76
2023/04/28 08:02:13;;;;;;;4.90;2.60;;;13.90;99.90;;;;;;4956085;28;20038;-77
2023/04/28 08:04:38;;;;;;;4.93;3.00;;;13.90;99.90;;;;;;4956378;28;20093;-77
2023/04/28 08:07:04;;;;;;;4.55;3.00;;;14.00;99.90;;;;;;4955949;28;20027;-77
2023/04/28 08:09:30;;;;;;;4.53;2.88;;;14.00;99.90;;;;;;4956147;28;20622;-76
2023/04/28 08:11:57;;;;;;;6.28;3.47;;;14.00;99.90;;;;;;4955964;28;20031;-79
2023/04/28 08:14:23;;;;;;;4.10;3.08;;;14.10;99.90;;;;;;4972893;28;20089;-76
2023/04/28 08:16:49;;;;;;;4.20;2.88;;;14.10;99.90;;;;;;4946197;29;20387;-77
2023/04/28 08:19:14;;;;;;;4.03;2.75;;;14.20;99.90;;;;;;4966934;28;20721;-77
2023/04/28 08:21:40;;;;;;;4.88;2.92;;;14.20;99.90;;;;;;4959754;28;20025;-77
2023/04/28 08:24:07;;;;;;;4.10;2.97;;;14.20;99.90;;;;;;4964847;28;20387;-77
2023/04/28 08:26:32;;;;;;;5.05;3.08;;;14.30;99.90;;;;;;4959964;28;20027;-77
2023/04/28 08:28:58;;;;;;;4.07;2.80;;;14.30;99.90;;;;;;4959624;28;20030;-77
2023/04/28 08:31:24;;;;;;;5.82;3.20;;;14.30;99.90;;;;;;4959298;28;20453;-77
2023/04/28 08:33:50;;;;;;;3.58;3.25;;;14.40;99.90;;;;;;4976373;28;20058;-77
2023/04/28 08:36:17;;;;;;;4.45;3.40;;;14.40;99.90;;;;;;4956728;28;20046;-77
2023/04/28 08:38:44;;;;;;;5.10;3.00;;;14.40;99.90;;;;;;4970484;28;20022;-82
2023/04/28 08:41:14;;;;;;;4.68;3.15;;;14.50;99.90;;;;;;4958528;28;20035;-75
2023/04/28 08:43:41;;;;;;;4.50;3.03;;;14.50;99.90;;;;;;4972966;28;20026;-77
2023/04/28 08:46:08;;;;;;;4.43;3.17;;;14.60;99.90;;;;;;4957409;28;20031;-81
2023/04/28 08:48:47;;;;;;;4.13;3.10;;;14.60;99.90;;;;;;4946660;28;20462;-79
2023/04/28 08:51:24;;;;;;;3.78;2.95;;;14.60;99.90;;;;;;4957311;28;20775;-79
2023/04/28 08:53:54;;;;;;;4.88;3.10;;;14.70;99.90;;;;;;4958246;28;20670;-78
2023/04/28 08:56:23;;;;;;;5.20;3.50;;;14.70;99.90;;;;;;4956830;28;20031;-77
2023/04/28 08:58:49;;;;;;;3.88;3.15;;;14.60;99.90;;;;;;4957494;28;20114;-76
2023/04/28 09:01:14;;;;;;;4.40;3.50;;;14.70;99.90;;;;;;4972011;28;20030;-79
2023/04/28 09:03:40;;;;;;;7.95;3.60;;;14.70;99.90;;;;;;4970246;28;20400;-80
2023/04/28 09:06:06;;;;;;;4.25;3.53;;;14.70;99.90;;;;;;4966484;28;20037;-76
2023/04/28 09:08:32;;;;;;;6.50;3.47;;;14.80;99.90;;;;;;4949188;28;20031;-77
2023/04/28 09:11:12;;;;;;;8.07;3.42;;;14.90;99.90;;;;;;4958673;28;20038;-81
2023/04/28 09:13:39;;;;;;;4.93;3.33;;;14.90;99.90;;;;;;4968167;28;20027;-76
2023/04/28 09:16:05;;;;;;;5.55;3.75;;;14.90;99.90;;;;;;4975010;28;20487;-77
2023/04/28 09:18:32;;;;;;;4.25;3.33;;;14.90;99.90;;;;;;4975651;28;20523;-77
2023/04/28 09:21:08;;;;;;;5.20;3.67;;;15.00;99.90;;;;;;4957971;28;20459;-79
2023/04/28 09:23:49;;;;;;;4.90;2.92;;;15.00;99.90;;;;;;4959006;28;20094;-78
2023/04/28 09:26:15;;;;;;;4.68;3.40;;;15.00;99.90;;;;;;4959052;28;20038;-79
2023/04/28 09:28:40;;;;;;;4.30;2.92;;;15.00;99.90;;;;;;4976164;28;20023;-77
2023/04/28 09:31:24;;;;;;;4.03;2.75;;;15.10;99.90;;;;;;4958570;28;20057;-78
2023/04/28 09:33:57;;;;;;;4.25;3.08;;;15.10;99.90;;;;;;4976245;28;20113;-79
2023/04/28 09:36:29;;;;;;;4.75;3.10;;;15.20;99.90;;;;;;4958632;28;20038;-81
2023/04/28 09:38:58;;;;;;;3.72;2.90;;;15.20;99.90;;;;;;4956896;28;20027;-80
2023/04/28 09:41:39;;;;;;;4.15;2.60;;;15.20;99.90;;;;;;4956522;29;20027;-79
2023/04/28 09:44:17;;;;;;;4.93;2.72;;;15.30;99.90;;;;;;4971532;28;20047;-78
2023/04/28 09:46:44;;;;;;;3.83;2.65;;;15.30;99.90;;;;;;4958637;28;20383;-78
2023/04/28 09:49:14;;;;;;;5.07;3.08;;;15.40;99.90;;;;;;4958386;28;20026;-79
2023/04/28 09:51:40;;;;;;;5.30;2.70;;;15.40;99.90;;;;;;4975685;28;20027;-78
2023/04/28 09:54:07;;;;;;;3.55;2.47;;;15.60;99.90;;;;;;4958100;28;20038;-79
2023/04/28 09:56:37;;;;;;;4.35;2.58;;;15.60;99.90;;;;;;4975833;28;20027;-78
2023/04/28 09:59:02;;;;;;;4.30;3.05;;;15.70;99.90;;;;;;4957975;28;20035;-79
2023/04/28 10:01:34;;;;;;;3.80;2.70;;;15.80;99.90;;;;;;4958310;28;20026;-78
2023/04/28 10:04:01;;;;;;;;;;;15.90;99.90;;;;;;4975558;28;20130;-79
2023/04/28 10:06:28;;;;;;;5.40;2.90;;;15.90;99.90;;;;;;4958583;28;19941;-80
2023/04/28 10:08:57;;;;;;;4.82;2.78;;;16.00;99.90;;;;;;4958375;28;20081;-80
2023/04/28 10:11:24;;;;;;;5.00;2.53;;;16.10;99.90;;;;;;4957918;28;20042;-80
2023/04/28 10:13:50;;;;;;;5.05;3.03;;;16.10;99.90;;;;;;4957713;28;20503;-78
2023/04/28 10:16:16;;;;;;;3.47;2.28;;;16.00;99.90;;;;;;4955636;28;20292;-81
2023/04/28 10:18:43;;;;;;;3.45;2.55;;;16.00;99.90;;;;;;4956690;28;20051;-82
2023/04/28 10:21:11;;;;;;;4.03;2.40;;;15.90;99.90;;;;;;4957052;28;20089;-81
2023/04/28 10:23:55;;;;;;;4.63;2.58;;;15.90;99.90;;;;;;4957538;28;20126;-81
2023/04/28 10:26:26;;;;;;;3.38;2.25;;;15.90;99.90;;;;;;4974535;28;20042;-81
2023/04/28 10:28:52;;;;;;;4.10;2.58;;;15.90;99.90;;;;;;4958438;28;20045;-81
2023/04/28 10:31:22;;;;;;;3.58;2.13;;;15.90;99.90;;;;;;4957241;28;20479;-81
2023/04/28 10:33:48;;;;;;;7.15;2.92;;;15.90;99.90;;;;;;4958181;28;20030;-81
2023/04/28 10:36:46;;;;;;;5.05;2.67;;;16.00;99.90;;;;;;4957495;28;20034;-81
2023/04/28 10:39:12;;;;;;;4.70;2.65;;;16.10;99.90;;;;;;4970699;28;20065;-82
2023/04/28 10:41:37;;;;;;;4.85;3.15;;;16.20;99.90;;;;;;4956020;28;20027;-82
2023/04/28 10:44:35;;;;;;;7.35;2.33;;;16.40;99.90;;;;;;4973824;28;20033;-82
2023/04/28 10:47:02;;;;;;;3.80;2.60;;;16.60;99.90;;;;;;4913197;28;20510;-79
2023/04/28 10:49:53;;;;;;;3.70;2.72;;;16.60;99.90;;;;;;4971452;28;20468;-79
2023/04/28 10:52:37;;;;;;;4.57;2.78;;;16.70;99.90;;;;;;4976323;28;20038;-79
2023/04/28 10:55:25;;;;;;;3.55;2.13;;;16.50;99.90;;;;;;4976397;28;20050;-80
2023/04/28 10:58:14;;;;;;;3.40;2.33;;;16.50;99.90;;;;;;4957607;28;20133;-77
2023/04/28 11:00:40;;;;;;;3.45;2.50;;;16.50;99.90;;;;;;4949332;28;20038;-76
2023/04/28 11:03:06;;;;;;;4.30;2.70;;;16.50;99.90;;;;;;4973918;28;20031;-76
2023/04/28 11:05:33;;;;;;;3.88;2.40;;;16.50;99.90;;;;;;4974106;28;20026;-76
2023/04/28 11:08:32;;;;;;;5.13;2.65;;;16.40;99.90;;;;;;4956814;28;20061;-80
2023/04/28 11:11:24;;;;;;;3.75;2.50;;;16.40;99.90;;;;;;4896394;29;20031;-78
2023/04/28 11:13:51;;;;;;;4.70;2.50;;;16.50;99.90;;;;;;4934494;29;20130;-75
2023/04/28 11:16:19;;;;;;;2.67;2.28;;;16.50;99.90;;;;;;4958579;28;20023;-76
2023/04/28 11:19:03;;;;;;;3.35;2.50;;;16.60;99.90;;;;;;4957186;28;20031;-76
2023/04/28 11:21:30;;;;;;;3.65;2.65;;;16.80;99.90;;;;;;4967525;28;20523;-76
2023/04/28 11:23:57;;;;;;;3.88;2.75;;;17.00;99.90;;;;;;4990868;28;20061;-77
2023/04/28 11:26:23;;;;;;;4.97;2.72;;;17.20;99.90;;;;;;4976315;28;20035;-76
2023/04/28 11:28:55;;;;;;;2.70;2.28;;;17.20;99.90;;;;;;4958343;28;20029;-77
2023/04/28 11:31:22;;;;;;;;;;;17.00;99.90;;;;;;4957173;28;20043;-76
2023/04/28 11:34:10;;;;;;;2.58;2.20;;;16.90;99.90;;;;;;4973852;28;20409;-76
2023/04/28 11:36:38;;;;;;;4.25;2.53;;;16.70;99.90;;;;;;4974424;28;20023;-77
2023/04/28 11:39:08;;;;;;;3.88;2.50;;;16.70;99.90;;;;;;4973533;28;20106;-77
2023/04/28 11:41:36;;;;;;;3.35;2.20;;;16.70;99.90;;;;;;4955847;28;20027;-77
2023/04/28 11:44:15;;;;;;;2.85;2.20;;;16.60;99.90;;;;;;4955147;28;20070;-83
2023/04/28 11:46:50;;;;;;;3.45;2.47;;;16.70;99.90;;;;;;4949092;29;20023;-76
2023/04/28 11:49:16;;;;;;;2.30;2.00;;;16.70;99.90;;;;;;4954263;29;20031;-77
2023/04/28 11:51:44;;;;;;;2.85;2.30;;;16.90;99.90;;;;;;4972147;28;20031;-77
2023/04/28 11:54:10;;;;;;;2.85;2.20;;;17.10;99.90;;;;;;4974832;28;20130;-78
2023/04/28 11:56:43;;;;;;;3.13;2.30;;;17.10;99.90;;;;;;4961492;28;20090;-78
2023/04/28 11:59:11;;;;;;;3.45;2.38;;;17.20;99.90;;;;;;4960546;28;20121;-77
2023/04/28 12:01:48;;;;;;;3.00;2.00;;;17.20;99.90;;;;;;4960471;28;20023;-78
2023/04/28 12:04:28;;;;;;;4.32;2.30;;;17.20;99.90;;;;;;4960015;28;20034;-77
2023/04/28 12:07:09;;;;;;;5.32;2.17;;;17.00;99.90;;;;;;4963327;28;20023;-76
2023/04/28 12:09:35;;;;;;;4.50;2.17;;;17.10;99.90;;;;;;4997214;28;20019;-76
2023/04/28 12:12:10;;;;;;;2.22;2.03;;;17.10;99.90;;;;;;4964337;28;20038;-77
2023/04/28 12:15:01;;;;;;;2.40;2.03;;;16.90;99.90;;;;;;4958911;28;20047;-75
2023/04/28 12:17:27;;;;;;;3.42;2.20;;;17.00;99.90;;;;;;4958902;28;20035;-74
2023/04/28 12:19:57;;;;;;;3.13;2.15;;;17.10;99.90;;;;;;4982491;28;20085;-75
2023/04/28 12:22:24;;;;;;;3.75;2.03;;;17.10;99.90;;;;;;4961887;28;20031;-75
2023/04/28 12:25:07;;;;;;;2.10;1.88;;;17.00;99.90;;;;;;4959165;28;20031;-75
2023/04/28 12:27:35;;;;;;;2.03;1.50;;;17.00;99.90;;;;;;4958713;28;20265;-75
2023/04/28 12:30:01;;;;;;;1.90;1.30;;;17.00;99.90;;;;;;4958616;28;20247;-77
2023/04/28 12:32:41;;;;;;;3.72;1.50;;;17.00;99.90;;;;;;4981393;28;20141;-75
2023/04/28 12:35:08;;;;;;;2.15;1.30;;;17.00;99.90;;;;;;4976293;28;20109;-76
2023/04/28 12:37:34;;;;;;;1.85;1.60;;;17.00;99.90;;;;;;4952707;28;20392;-77
2023/04/28 12:40:00;;;;;;;2.47;1.50;;;17.00;99.90;;;;;;4976318;28;20023;-75
2023/04/28 12:42:26;;;;;;;4.18;1.80;;;17.10;99.90;;;;;;4957532;28;20090;-75
2023/04/28 12:44:52;;;;;;;2.05;1.67;;;17.10;99.90;;;;;;4958728;28;20431;-74
2023/04/28 12:47:17;;;;;;;1.92;1.70;;;17.20;99.90;;;;;;4965154;28;21392;-76
2023/04/28 12:49:43;;;;;;;3.97;2.15;;;17.20;99.90;;;;;;4988243;28;20031;-75